Time;durP1;ratioP1;P1;durP2;ratioP2;P2;SDS_P1;SDS_P2;PMS_P1;PMS_P2;Temp;Humidity;BMP_temperature;BMP_pressure;BME280_temperature;BME280_humidity;BME280_pressure;Samples;Min_cycle;Max_cycle;Signal;HPM_P1;HPM_P2
2022/06/10 00:00:49;;;;;;;3.87;1.20;;;;;;;10.05;64.94;96608.31;10340352;28;97415;-67
2022/06/10 00:05:56;;;;;;;4.88;1.52;;;;;;;9.93;65.30;96612.00;10334880;28;101783;-68
2022/06/10 00:11:02;;;;;;;5.68;1.48;;;;;;;9.84;65.04;96604.03;10342633;28;97800;-68
2022/06/10 00:16:06;;;;;;;3.92;1.55;;;;;;;9.77;65.48;96612.53;10339462;28;97263;-68
2022/06/10 00:21:11;;;;;;;4.75;1.58;;;;;;;9.66;66.10;96611.69;10337369;28;97141;-67
2022/06/10 00:26:16;;;;;;;6.47;1.67;;;;;;;9.53;66.46;96615.47;10339854;28;99798;-67
2022/06/10 00:31:19;;;;;;;8.02;1.75;;;;;;;9.50;66.91;96605.31;10347559;28;96981;-67
2022/06/10 00:36:26;;;;;;;2.83;1.17;;;;;;;9.53;67.05;96605.03;10336596;28;96791;-67
2022/06/10 00:41:30;;;;;;;5.65;1.50;;;;;;;9.43;67.02;96605.81;10334815;28;97028;-71
2022/06/10 00:46:37;;;;;;;3.27;1.33;;;;;;;9.40;67.13;96611.28;10339524;28;102961;-69
2022/06/10 00:51:42;;;;;;;2.10;1.17;;;;;;;9.32;66.64;96608.50;10338610;28;96765;-69
2022/06/10 00:56:51;;;;;;;3.75;1.70;;;;;;;9.20;67.62;96610.34;10336438;28;97426;-67
2022/06/10 01:01:58;;;;;;;4.93;1.55;;;;;;;9.08;67.41;96612.22;10341137;28;96909;-68
2022/06/10 01:07:02;;;;;;;2.90;1.35;;;;;;;9.01;68.29;96608.47;10335839;28;96764;-68
2022/06/10 01:12:37;;;;;;;3.08;1.58;;;;;;;8.86;69.77;96613.22;10335569;28;96724;-67
2022/06/10 01:17:50;;;;;;;4.90;1.73;;;;;;;8.68;70.06;96605.13;10321565;28;97184;-67
2022/06/10 01:23:29;;;;;;;4.20;1.70;;;;;;;8.52;70.64;96604.75;10340776;28;96846;-67
2022/06/10 01:28:59;;;;;;;4.38;1.23;;;;;;;8.39;70.71;96604.09;10340721;28;97966;-67
2022/06/10 01:34:14;;;;;;;4.07;1.50;;;;;;;8.38;70.68;96612.84;10338102;28;96682;-67
2022/06/10 01:39:28;;;;;;;5.80;1.85;;;;;;;8.44;70.57;96609.75;10334153;28;96924;-67
2022/06/10 01:44:39;;;;;;;3.45;1.40;;;;;;;8.40;70.45;96605.75;10320752;28;99812;-67
2022/06/10 01:49:52;;;;;;;4.68;1.65;;;;;;;8.46;70.96;96615.66;10338284;28;96833;-67
2022/06/10 01:55:04;;;;;;;5.68;1.55;;;;;;;8.32;70.99;96609.78;10337283;28;96932;-67
2022/06/10 02:00:10;;;;;;;5.15;1.50;;;;;;;8.31;71.02;96618.56;10348367;28;97001;-67
2022/06/10 02:05:19;;;;;;;7.85;1.67;;;;;;;8.24;71.88;96611.34;10336201;28;100056;-67
2022/06/10 02:10:27;;;;;;;3.97;1.90;;;;;;;8.16;72.02;96609.38;10335020;28;97057;-67
2022/06/10 02:15:35;;;;;;;5.32;1.48;;;;;;;8.15;71.81;96602.50;10341620;28;97366;-67
2022/06/10 02:20:48;;;;;;;4.80;1.67;;;;;;;8.07;71.96;96599.72;10341441;28;96830;-68
2022/06/10 02:25:55;;;;;;;6.93;1.40;;;;;;;8.07;71.90;96604.94;10347033;28;98128;-67
2022/06/10 02:31:03;;;;;;;5.03;1.38;;;;;;;8.00;72.39;96612.41;10343054;28;96891;-67
2022/06/10 02:36:13;;;;;;;5.22;1.52;;;;;;;8.02;72.38;96607.06;10340715;28;96796;-67
2022/06/10 02:41:23;;;;;;;4.97;1.58;;;;;;;8.00;73.02;96608.97;10341091;28;97008;-67
2022/06/10 02:46:31;;;;;;;6.10;1.70;;;;;;;7.92;72.77;96613.00;10341960;28;96755;-66
2022/06/10 02:51:38;;;;;;;5.68;1.45;;;;;;;7.83;73.02;96618.94;10343296;28;96970;-68
2022/06/10 02:56:40;;;;;;;6.95;1.70;;;;;;;7.86;72.56;96618.69;10339935;28;96792;-67
2022/06/10 03:02:03;;;;;;;5.53;1.55;;;;;;;7.86;72.79;96623.91;10343985;28;96743;-67
2022/06/10 03:07:26;;;;;;;3.00;1.38;;;;;;;7.75;72.74;96631.69;10340803;28;96759;-67
2022/06/10 03:12:37;;;;;;;2.50;1.58;;;;;;;7.72;72.82;96632.78;10342451;28;96918;-67
2022/06/10 03:17:47;;;;;;;3.50;1.52;;;;;;;7.67;73.12;96639.31;10339337;28;96708;-67
2022/06/10 03:23:08;;;;;;;3.47;1.50;;;;;;;7.70;73.13;96633.84;10343714;28;96844;-66
2022/06/10 03:28:15;;;;;;;5.65;1.95;;;;;;;7.57;73.58;96639.19;10341572;28;97748;-66
2022/06/10 03:33:24;;;;;;;5.40;2.05;;;;;;;7.43;74.38;96636.81;10343531;28;96984;-67
2022/06/10 03:38:30;;;;;;;4.47;1.95;;;;;;;7.25;74.66;96652.03;10322624;28;97212;-67
2022/06/10 03:43:36;;;;;;;5.93;2.10;;;;;;;7.14;75.12;96642.47;10343363;28;97439;-67
2022/06/10 03:48:42;;;;;;;3.90;1.83;;;;;;;7.02;75.43;96641.63;10340625;28;97401;-70
2022/06/10 03:53:47;;;;;;;4.00;1.80;;;;;;;7.03;75.76;96649.31;10336943;28;96889;-67
2022/06/10 03:58:51;;;;;;;6.10;2.10;;;;;;;7.12;75.42;96650.38;10342814;28;96875;-66
2022/06/10 04:03:54;;;;;;;5.68;1.70;;;;;;;7.22;74.90;96658.31;10339740;28;100065;-67
2022/06/10 04:08:58;;;;;;;4.32;1.63;;;;;;;7.30;74.50;96653.38;10335732;28;97282;-67
2022/06/10 04:14:06;;;;;;;3.15;1.23;;;;;;;7.38;74.42;96661.38;10341614;28;96773;-67
2022/06/10 04:19:11;;;;;;;3.50;1.50;;;;;;;7.41;74.52;96668.13;10340111;28;96976;-66
2022/06/10 04:24:16;;;;;;;6.78;1.50;;;;;;;7.42;74.60;96674.97;10336699;28;97205;-67
2022/06/10 04:29:18;;;;;;;3.22;1.20;;;;;;;7.39;74.99;96673.44;10339619;28;96745;-67
2022/06/10 04:34:22;;;;;;;3.55;1.95;;;;;;;7.45;75.35;96674.75;10338916;28;96713;-67
2022/06/10 04:39:26;;;;;;;2.22;1.30;;;;;;;7.48;75.81;96674.50;10338119;28;97359;-66
2022/06/10 04:44:29;;;;;;;5.10;1.70;;;;;;;7.66;75.40;96684.44;10321655;28;97937;-67
2022/06/10 04:49:32;;;;;;;5.22;1.90;;;;;;;7.86;75.13;96686.31;10339447;28;96839;-66
2022/06/10 04:54:37;;;;;;;3.17;1.48;;;;;;;8.07;74.86;96683.81;10337770;28;99783;-68
2022/06/10 04:59:40;;;;;;;;;;;;;;;8.29;73.95;96682.94;10336951;28;96694;-69
2022/06/10 05:04:43;;;;;;;4.13;1.48;;;;;;;8.50;73.52;96692.59;10341034;28;96862;-67
2022/06/10 05:09:47;;;;;;;6.25;1.60;;;;;;;8.71;73.41;96693.44;10331107;28;97440;-66
2022/06/10 05:14:50;;;;;;;3.40;1.27;;;;;;;8.79;73.30;96684.16;10333859;28;97252;-67
2022/06/10 05:19:53;;;;;;;4.72;1.70;;;;;;;8.96;73.16;96691.41;10341768;28;102567;-66
2022/06/10 05:24:59;;;;;;;;;;;;;;;9.07;72.69;96688.78;10337540;28;96881;-67
2022/06/10 05:30:04;;;;;;;4.60;1.83;;;;;;;9.27;72.74;96683.66;10334817;28;96925;-66
2022/06/10 05:35:08;;;;;;;7.32;1.83;;;;;;;9.47;72.03;96688.06;10336840;28;96830;-67
2022/06/10 05:40:14;;;;;;;3.90;1.50;;;;;;;9.59;72.12;96698.41;10336798;28;97578;-67
2022/06/10 05:45:18;;;;;;;6.70;1.92;;;;;;;9.80;72.10;96696.59;10334113;28;98392;-67
2022/06/10 05:50:25;;;;;;;4.80;1.67;;;;;;;10.07;71.72;96696.94;10343340;28;96722;-67
2022/06/10 05:55:30;;;;;;;3.85;1.50;;;;;;;10.21;71.16;96689.53;10342557;28;96840;-67
2022/06/10 06:00:39;;;;;;;4.00;1.48;;;;;;;10.35;70.95;96698.78;10343333;28;96748;-66
2022/06/10 06:05:42;;;;;;;2.78;1.45;;;;;;;10.41;70.34;96694.81;10340888;28;96711;-67
2022/06/10 06:10:47;;;;;;;6.38;1.90;;;;;;;10.63;70.99;96692.91;10345230;28;96885;-66
2022/06/10 06:15:50;;;;;;;7.40;1.70;;;;;;;10.96;70.00;96692.50;10344269;28;96858;-66
2022/06/10 06:20:56;;;;;;;5.88;1.80;;;;;;;11.29;69.51;96685.13;10339487;28;99951;-67
2022/06/10 06:26:01;;;;;;;4.70;1.65;;;;;;;11.53;69.32;96689.09;10344350;28;96744;-67
2022/06/10 06:31:03;;;;;;;7.70;1.80;;;;;;;11.78;68.93;96690.25;10343395;28;96720;-67
2022/06/10 06:36:09;;;;;;;4.10;1.55;;;;;;;11.96;68.45;96698.16;10345344;28;97021;-67
2022/06/10 06:41:13;;;;;;;10.45;2.00;;;;;;;12.16;68.18;96700.69;10336100;28;96881;-68
2022/06/10 06:46:18;;;;;;;7.73;2.00;;;;;;;12.41;67.89;96692.13;10342087;28;99910;-67
2022/06/10 06:51:21;;;;;;;5.97;1.92;;;;;;;12.41;67.77;96692.13;10341131;28;96963;-67
2022/06/10 06:56:26;;;;;;;4.50;1.77;;;;;;;12.59;67.82;96689.50;10340612;28;96759;-68
2022/06/10 07:01:29;;;;;;;7.80;1.95;;;;;;;12.78;67.04;96703.47;10342139;28;96761;-67
2022/06/10 07:06:33;;;;;;;4.97;1.50;;;;;;;13.00;65.95;96692.53;10338770;28;97341;-67
2022/06/10 07:11:38;;;;;;;6.95;1.73;;;;;;;13.17;66.55;96701.34;10333522;28;96922;-67
2022/06/10 07:16:46;;;;;;;3.90;1.50;;;;;;;13.32;65.91;96699.00;10343621;28;98155;-67
2022/06/10 07:21:49;;;;;;;6.03;1.50;;;;;;;13.50;65.66;96700.75;10341041;28;97060;-67
2022/06/10 07:27:00;;;;;;;5.10;1.60;;;;;;;13.67;65.21;96699.84;10332368;28;97170;-69
2022/06/10 07:32:03;;;;;;;5.03;1.75;;;;;;;13.82;64.54;96697.50;10344222;28;96689;-67
2022/06/10 07:37:06;;;;;;;4.75;1.63;;;;;;;13.90;65.19;96694.91;10340366;28;97395;-68
2022/06/10 07:42:10;;;;;;;4.03;1.27;;;;;;;14.00;64.62;96694.78;10338937;28;96871;-67
2022/06/10 07:47:15;;;;;;;3.47;1.30;;;;;;;14.07;63.96;96687.09;10341105;28;102103;-67
2022/06/10 07:52:18;;;;;;;5.50;1.42;;;;;;;14.16;64.25;96688.78;10339592;28;97968;-67
2022/06/10 07:57:22;;;;;;;4.65;1.42;;;;;;;14.14;64.69;96680.22;10340309;28;96750;-67
2022/06/10 08:02:25;;;;;;;4.37;1.40;;;;;;;14.28;63.92;96684.88;10339221;28;96744;-68
2022/06/10 08:07:28;;;;;;;5.18;1.30;;;;;;;14.49;62.39;96678.38;10338922;28;98561;-67
2022/06/10 08:12:32;;;;;;;5.75;1.40;;;;;;;14.71;63.12;96676.91;10339933;28;97096;-67
2022/06/10 08:17:35;;;;;;;5.77;1.60;;;;;;;14.83;60.75;96675.63;10337988;28;96939;-68
2022/06/10 08:22:38;;;;;;;4.28;1.23;;;;;;;15.02;60.53;96687.63;10340496;28;96932;-67
2022/06/10 08:27:42;;;;;;;2.88;1.20;;;;;;;15.02;59.27;96682.34;10338020;28;99378;-67
2022/06/10 08:32:45;;;;;;;3.35;1.40;;;;;;;15.11;59.90;96678.75;10336773;28;96885;-66
2022/06/10 08:37:50;;;;;;;4.30;1.35;;;;;;;15.24;59.59;96674.81;10340852;28;96905;-67
2022/06/10 08:43:06;;;;;;;6.47;1.52;;;;;;;15.34;58.55;96678.09;10339503;28;99145;-67
2022/06/10 08:48:18;;;;;;;5.77;1.60;;;;;;;15.44;59.21;96672.63;10336690;28;97031;-67
2022/06/10 08:53:45;;;;;;;5.88;1.55;;;;;;;15.47;57.52;96667.84;10339634;28;96829;-67
2022/06/10 08:58:58;;;;;;;5.88;1.73;;;;;;;15.64;57.35;96667.84;10341510;28;96695;-67
2022/06/10 09:04:05;;;;;;;3.85;1.30;;;;;;;15.78;56.95;96659.22;10336745;28;99987;-67
2022/06/10 09:09:11;;;;;;;4.78;1.38;;;;;;;15.94;56.81;96660.16;10335598;28;97460;-67
2022/06/10 09:14:19;;;;;;;4.07;1.90;;;;;;;16.01;56.54;96656.66;10339726;28;96947;-67
2022/06/10 09:19:34;;;;;;;3.33;1.10;;;;;;;16.06;55.97;96680.69;10338167;28;96721;-67
2022/06/10 09:24:43;;;;;;;6.13;1.50;;;;;;;16.14;57.37;96677.22;10343674;28;98005;-67
2022/06/10 09:29:47;;;;;;;3.13;1.42;;;;;;;16.30;56.45;96672.84;10342167;28;96957;-67
2022/06/10 09:35:01;;;;;;;2.90;1.10;;;;;;;16.41;55.40;96675.09;10348108;28;96882;-67
2022/06/10 09:45:39;;;;;;;5.78;1.58;;;;;;;16.58;54.85;96676.63;10345100;28;97719;-67
2022/06/10 09:50:52;;;;;;;5.70;1.27;;;;;;;16.74;54.35;96669.59;10341889;28;96741;-67
2022/06/10 09:56:12;;;;;;;3.38;1.20;;;;;;;16.91;53.51;96673.78;10338678;28;97162;-68
2022/06/10 10:01:34;;;;;;;2.83;1.00;;;;;;;17.08;52.63;96674.50;10344067;28;97191;-68
2022/06/10 10:06:43;;;;;;;4.53;1.35;;;;;;;17.19;53.27;96667.97;10344396;28;96898;-68
2022/06/10 10:11:52;;;;;;;7.57;1.50;;;;;;;17.32;53.80;96668.19;10341911;28;97163;-67
2022/06/10 10:17:09;;;;;;;2.95;1.00;;;;;;;17.46;53.83;96669.19;10347272;28;96942;-68
2022/06/10 10:22:34;;;;;;;4.07;1.45;;;;;;;17.60;53.19;96675.50;10342513;28;98736;-68
2022/06/10 10:27:37;;;;;;;5.75;1.48;;;;;;;17.74;52.77;96665.94;10343610;28;96937;-68
2022/06/10 10:32:48;;;;;;;4.60;1.13;;;;;;;17.85;53.10;96662.03;10339703;28;99608;-67
2022/06/10 10:37:55;;;;;;;3.83;1.33;;;;;;;17.82;52.56;96651.78;10344921;28;96844;-67
2022/06/10 10:43:03;;;;;;;3.33;1.00;;;;;;;18.01;51.76;96655.75;10342410;28;96937;-68
2022/06/10 10:48:18;;;;;;;3.72;1.17;;;;;;;18.17;50.89;96654.72;10340197;28;96679;-67
2022/06/10 10:53:25;;;;;;;4.22;1.40;;;;;;;18.25;50.08;96647.47;10341996;28;96793;-67
2022/06/10 10:58:32;;;;;;;5.97;1.40;;;;;;;18.47;49.86;96643.06;10343395;28;96951;-68
2022/06/10 11:03:45;;;;;;;3.28;1.23;;;;;;;18.55;49.39;96649.22;10341931;28;96995;-68
2022/06/10 11:08:57;;;;;;;2.78;1.10;;;;;;;18.67;47.14;96645.91;10338114;28;98827;-68
2022/06/10 11:14:02;;;;;;;2.45;0.73;;;;;;;18.74;47.12;96648.63;10344475;28;97097;-67
2022/06/10 11:19:15;;;;;;;3.80;1.38;;;;;;;18.93;47.62;96641.06;10341895;28;97108;-67
2022/06/10 11:24:20;;;;;;;1.92;0.80;;;;;;;19.08;47.43;96641.81;10340968;28;96921;-68
2022/06/10 11:29:24;;;;;;;4.32;1.10;;;;;;;19.28;48.48;96646.44;10341353;28;96769;-67
2022/06/10 11:34:34;;;;;;;3.13;1.02;;;;;;;19.37;45.94;96640.81;10343629;28;97098;-70
2022/06/10 11:39:48;;;;;;;1.92;0.80;;;;;;;19.48;45.02;96636.00;10340801;28;96945;-69
2022/06/10 11:44:56;;;;;;;4.72;1.27;;;;;;;19.57;45.21;96625.03;10336683;28;96990;-67
2022/06/10 11:50:07;;;;;;;3.63;1.02;;;;;;;19.65;44.05;96636.50;10336849;28;96797;-67
2022/06/10 11:55:15;;;;;;;2.75;0.90;;;;;;;19.63;43.21;96634.88;10338791;28;97161;-68
2022/06/10 12:00:32;;;;;;;2.63;1.55;;;;;;;19.56;43.56;96628.72;10339738;28;97016;-67
2022/06/10 12:05:50;;;;;;;1.70;1.13;;;;;;;19.75;42.28;96632.50;10323198;28;96998;-67
2022/06/10 12:10:57;;;;;;;3.50;1.05;;;;;;;19.87;42.24;96632.78;10342501;28;97939;-67
2022/06/10 12:16:00;;;;;;;1.83;0.80;;;;;;;20.04;43.63;96629.78;10340524;28;97435;-68
2022/06/10 12:21:06;;;;;;;2.28;0.90;;;;;;;20.17;41.71;96624.53;10336801;28;96809;-70
2022/06/10 12:26:22;;;;;;;1.90;0.80;;;;;;;20.23;41.45;96617.63;10339627;28;96796;-67
2022/06/10 12:31:42;;;;;;;1.35;0.60;;;;;;;20.24;41.87;96614.78;10338492;28;97261;-67
2022/06/10 12:36:51;;;;;;;1.25;0.55;;;;;;;20.48;40.65;96612.59;10339239;28;97179;-68
2022/06/10 12:42:03;;;;;;;3.88;1.05;;;;;;;20.63;40.54;96607.91;10334846;28;96829;-68
2022/06/10 12:47:08;;;;;;;2.17;0.80;;;;;;;20.73;40.20;96610.97;10342929;28;96793;-67
2022/06/10 12:52:23;;;;;;;2.92;0.82;;;;;;;20.68;39.74;96615.28;10337549;28;97041;-68
2022/06/10 12:57:39;;;;;;;2.00;0.80;;;;;;;20.69;40.83;96607.09;10337403;28;97267;-68
2022/06/10 13:02:45;;;;;;;3.75;1.00;;;;;;;20.83;40.39;96601.84;10321900;28;96855;-67
2022/06/10 13:07:50;;;;;;;4.25;1.08;;;;;;;20.96;39.82;96596.53;10340489;28;97021;-68
2022/06/10 13:13:24;;;;;;;;;;;;;;;;;;;;;
2022/06/10 13:18:32;;;;;;;2.13;0.85;;;;;;;21.12;39.15;96590.00;10338432;28;101976;-68
2022/06/10 13:24:03;;;;;;;1.15;0.60;;;;;;;21.60;38.65;96591.53;10334362;28;96784;-67
2022/06/10 13:29:13;;;;;;;1.33;0.70;;;;;;;21.62;38.22;96590.34;10340169;28;96717;-68
2022/06/10 13:34:22;;;;;;;1.80;0.98;;;;;;;21.73;38.05;96588.03;10338411;28;97006;-68
2022/06/10 13:39:29;;;;;;;1.23;0.73;;;;;;;21.86;38.77;96580.84;10338801;28;96800;-67
2022/06/10 13:44:37;;;;;;;1.95;0.77;;;;;;;22.04;38.06;96571.38;10320516;28;96883;-68
2022/06/10 13:49:46;;;;;;;2.65;0.70;;;;;;;21.92;36.44;96570.38;10338920;28;97070;-68
2022/06/10 13:54:50;;;;;;;2.72;0.82;;;;;;;21.95;36.51;96551.34;10336954;28;96852;-68
2022/06/10 13:59:58;;;;;;;;;;;;;;;22.16;36.97;96555.53;10333904;28;96895;-68
2022/06/10 14:05:02;;;;;;;2.92;0.82;;;;;;;22.70;35.11;96553.38;10332870;28;97023;-68
2022/06/10 14:10:18;;;;;;;2.55;0.75;;;;;;;23.41;35.01;96554.81;10340889;28;97477;-68
2022/06/10 14:15:24;;;;;;;2.38;0.75;;;;;;;24.97;32.71;96550.69;10341798;28;96874;-68
2022/06/10 14:20:31;;;;;;;2.30;0.80;;;;;;;26.29;32.02;96541.19;10342850;28;97059;-68
2022/06/10 14:25:37;;;;;;;1.77;0.52;;;;;;;28.11;29.38;96549.75;10346481;28;96909;-68
2022/06/10 14:30:49;;;;;;;1.15;0.50;;;;;;;29.25;28.08;96552.41;10343748;28;96778;-68
2022/06/10 14:36:05;;;;;;;2.03;0.45;;;;;;;29.86;26.30;96546.53;10338586;28;98512;-69
2022/06/10 14:41:22;;;;;;;1.63;0.52;;;;;;;30.70;25.23;96549.16;10338190;28;96800;-69
2022/06/10 14:46:26;;;;;;;1.55;0.60;;;;;;;31.08;24.82;96543.53;10339015;28;96895;-68
2022/06/10 14:51:35;;;;;;;2.00;0.30;;;;;;;31.39;22.96;96539.72;10342809;28;96788;-69
2022/06/10 14:56:41;;;;;;;2.00;0.50;;;;;;;31.20;22.36;96535.97;10340556;28;97758;-69
2022/06/10 15:01:44;;;;;;;1.63;0.55;;;;;;;31.43;22.80;96534.59;10343591;28;96979;-68
2022/06/10 15:06:52;;;;;;;1.25;0.45;;;;;;;32.11;22.09;96533.25;10341348;28;97116;-68
2022/06/10 15:11:57;;;;;;;0.77;0.40;;;;;;;32.31;21.28;96525.03;10337088;28;98506;-69
2022/06/10 15:16:59;;;;;;;1.25;0.35;;;;;;;32.50;21.94;96535.22;10337652;28;96968;-68
2022/06/10 15:22:19;;;;;;;0.88;0.47;;;;;;;32.83;21.41;96524.69;10340478;28;96732;-68
2022/06/10 15:27:23;;;;;;;1.55;0.50;;;;;;;32.77;20.89;96518.53;10337416;28;99630;-69
2022/06/10 15:32:27;;;;;;;0.60;0.40;;;;;;;33.12;20.44;96513.06;10341240;28;96806;-69
2022/06/10 15:42:52;;;;;;;2.25;0.57;;;;;;;33.33;20.81;96511.78;10337863;28;97074;-69
2022/06/10 15:47:54;;;;;;;2.33;0.45;;;;;;;33.46;20.09;96519.22;10336525;28;96864;-69
2022/06/10 15:53:00;;;;;;;3.20;0.60;;;;;;;33.01;20.45;96515.88;10337268;28;96955;-69
2022/06/10 15:58:04;;;;;;;1.38;0.40;;;;;;;33.25;20.68;96515.91;10340849;28;96835;-69
2022/06/10 16:03:10;;;;;;;1.58;0.60;;;;;;;33.44;21.16;96510.56;10338044;28;96773;-69
2022/06/10 16:08:14;;;;;;;1.08;0.80;;;;;;;33.85;20.62;96509.31;10347188;28;96871;-69
2022/06/10 16:13:21;;;;;;;1.90;0.68;;;;;;;34.06;20.74;96509.84;10332999;28;96940;-70
2022/06/10 16:18:29;;;;;;;3.92;3.08;;;;;;;33.81;21.13;96509.09;10328992;28;96769;-70
2022/06/10 16:23:34;;;;;;;2.70;0.80;;;;;;;33.05;21.11;96503.41;10327166;28;97090;-70
2022/06/10 16:28:42;;;;;;;0.98;0.45;;;;;;;33.47;21.02;96493.75;10341195;28;96979;-72
2022/06/10 16:33:45;;;;;;;0.95;0.50;;;;;;;34.07;20.87;96495.16;10337998;28;99704;-69
2022/06/10 16:38:48;;;;;;;2.38;1.05;;;;;;;33.96;20.96;96496.41;10335247;28;96763;-69
2022/06/10 16:43:54;;;;;;;2.65;1.13;;;;;;;34.02;21.20;96496.06;10341942;28;97149;-69
2022/06/10 16:48:57;;;;;;;2.10;1.00;;;;;;;33.90;21.20;96497.56;10338351;28;97173;-69
2022/06/10 16:54:01;;;;;;;3.45;2.05;;;;;;;34.02;21.11;96493.34;10333916;28;97039;-69
2022/06/10 16:59:06;;;;;;;1.65;0.65;;;;;;;34.28;21.16;96484.88;10341462;28;96747;-70
2022/06/10 17:04:12;;;;;;;2.28;0.85;;;;;;;34.02;21.72;96497.97;10338252;28;97773;-68
2022/06/10 17:09:15;;;;;;;3.10;1.60;;;;;;;33.77;21.96;96497.19;10335902;28;101785;-69
2022/06/10 17:14:23;;;;;;;2.20;0.90;;;;;;;33.77;21.69;96497.19;10338276;28;97060;-70
2022/06/10 17:19:27;;;;;;;2.55;0.80;;;;;;;33.35;22.25;96504.19;10333878;28;96899;-67
2022/06/10 17:24:30;;;;;;;2.42;1.52;;;;;;;33.08;22.50;96507.44;10338471;28;97265;-70
2022/06/10 17:29:39;;;;;;;4.90;2.90;;;;;;;32.41;23.08;96515.25;10336423;28;96840;-68
2022/06/10 17:34:42;;;;;;;1.42;0.90;;;;;;;33.19;22.23;96508.94;10339832;28;96836;-67
2022/06/10 17:39:45;;;;;;;1.70;0.60;;;;;;;32.95;22.31;96505.38;10334882;28;96881;-67
2022/06/10 17:44:50;;;;;;;1.60;0.82;;;;;;;32.81;22.85;96508.72;10340024;28;97823;-70
2022/06/10 17:49:55;;;;;;;0.80;0.65;;;;;;;32.49;22.85;96495.69;10349243;28;96910;-69
2022/06/10 17:54:59;;;;;;;2.40;0.82;;;;;;;32.69;22.81;96509.09;10341805;28;97117;-69
2022/06/10 18:00:08;;;;;;;2.58;1.23;;;;;;;32.54;23.21;96514.63;10338366;28;98417;-68
2022/06/10 18:05:16;;;;;;;4.32;2.60;;;;;;;32.73;23.23;96509.34;10342194;28;96869;-69
2022/06/10 18:10:20;;;;;;;4.18;2.17;;;;;;;31.93;24.43;96513.88;10343652;28;96957;-70
2022/06/10 18:15:24;;;;;;;3.05;0.77;;;;;;;30.01;26.53;96512.66;10345138;28;97228;-69
2022/06/10 18:20:29;;;;;;;1.95;0.80;;;;;;;27.65;29.04;96517.03;10342812;28;96792;-69
2022/06/10 18:25:32;;;;;;;4.90;1.20;;;;;;;25.98;31.06;96524.53;10340757;28;96850;-69
2022/06/10 18:30:36;;;;;;;2.33;0.95;;;;;;;24.81;32.53;96515.59;10343283;28;96839;-68
2022/06/10 18:35:41;;;;;;;2.35;0.60;;;;;;;24.06;34.02;96524.13;10340916;28;97001;-68
2022/06/10 18:41:02;;;;;;;2.65;0.98;;;;;;;23.29;34.82;96524.56;10337923;28;96956;-68
2022/06/10 18:46:16;;;;;;;2.97;0.80;;;;;;;22.73;36.40;96527.13;10343173;28;96766;-68
2022/06/10 18:51:24;;;;;;;2.03;1.00;;;;;;;22.34;36.96;96533.53;10341215;28;98595;-69
2022/06/10 18:56:30;;;;;;;2.05;0.80;;;;;;;22.05;37.61;96533.09;10339108;28;96770;-69
2022/06/10 19:01:37;;;;;;;3.35;0.70;;;;;;;21.71;38.30;96527.13;10344907;28;97076;-68
2022/06/10 19:06:40;;;;;;;2.15;0.98;;;;;;;21.43;38.49;96532.69;10345941;28;96904;-70
2022/06/10 19:11:44;;;;;;;4.38;1.00;;;;;;;21.23;39.28;96532.75;10339113;28;96786;-68
2022/06/10 19:16:50;;;;;;;3.77;1.17;;;;;;;21.07;39.94;96534.03;10344480;28;97143;-67
2022/06/10 19:21:56;;;;;;;5.97;1.00;;;;;;;20.87;40.09;96542.00;10341976;28;99925;-68
2022/06/10 19:27:04;;;;;;;4.00;1.35;;;;;;;20.55;41.03;96541.75;10336178;28;96951;-68
2022/06/10 19:32:08;;;;;;;1.77;0.93;;;;;;;20.42;41.52;96549.69;10344068;28;97000;-68
2022/06/10 19:37:18;;;;;;;2.65;1.13;;;;;;;20.35;41.43;96550.50;10340257;28;97102;-68
2022/06/10 19:42:26;;;;;;;3.33;1.30;;;;;;;20.17;42.27;96547.63;10341074;28;96876;-68
2022/06/10 19:47:38;;;;;;;4.03;1.20;;;;;;;19.86;42.84;96548.16;10339529;28;96731;-68
2022/06/10 19:52:45;;;;;;;2.42;1.08;;;;;;;19.42;43.69;96548.34;10341602;28;96857;-68
2022/06/10 19:57:49;;;;;;;2.67;1.10;;;;;;;19.17;43.54;96557.75;10341173;28;97154;-67
2022/06/10 20:02:56;;;;;;;3.15;0.90;;;;;;;18.98;43.84;96561.91;10336971;28;96993;-67
2022/06/10 20:08:00;;;;;;;1.65;0.80;;;;;;;18.84;43.93;96568.88;10334561;28;97859;-68
2022/06/10 20:13:05;;;;;;;5.30;1.30;;;;;;;18.68;43.15;96562.03;10340362;28;99649;-68
2022/06/10 20:18:18;;;;;;;3.25;1.00;;;;;;;18.62;43.77;96570.72;10337595;28;97013;-67
2022/06/10 20:23:24;;;;;;;3.90;1.10;;;;;;;18.62;42.77;96568.09;10341064;28;98446;-67
2022/06/10 20:28:28;;;;;;;2.67;0.85;;;;;;;18.55;42.32;96564.56;10338781;28;96917;-67
2022/06/10 20:33:34;;;;;;;1.73;0.93;;;;;;;18.49;42.87;96564.31;10339688;28;96744;-68
2022/06/10 20:38:38;;;;;;;3.13;1.00;;;;;;;18.42;43.44;96566.09;10334767;28;97086;-69
2022/06/10 20:43:41;;;;;;;7.85;1.35;;;;;;;18.36;43.78;96574.78;10340057;28;96936;-67
2022/06/10 20:48:46;;;;;;;3.63;1.00;;;;;;;18.31;43.11;96577.19;10339539;28;96752;-67
2022/06/10 20:53:49;;;;;;;3.55;0.82;;;;;;;18.23;43.32;96575.47;10333056;28;97252;-68
2022/06/10 20:58:52;;;;;;;4.80;1.23;;;;;;;18.11;44.32;96575.13;10341982;28;96894;-68
2022/06/10 21:09:22;;;;;;;2.72;1.40;;;;;;;18.07;44.24;96581.00;10329856;28;96933;-68
2022/06/10 21:14:25;;;;;;;3.58;1.80;;;;;;;17.85;46.82;96582.75;10339460;28;96922;-66
2022/06/10 21:19:33;;;;;;;3.45;1.73;;;;;;;17.61;47.89;96597.06;10340044;28;97017;-68
2022/06/10 21:24:36;;;;;;;2.70;1.77;;;;;;;17.37;48.04;96599.00;10339981;28;97900;-68
2022/06/10 21:29:39;;;;;;;5.00;1.75;;;;;;;17.19;48.95;96597.50;10337052;28;100058;-67
2022/06/10 21:34:45;;;;;;;3.67;1.70;;;;;;;17.06;49.10;96599.94;10342394;28;97050;-67
2022/06/10 21:39:50;;;;;;;5.57;1.92;;;;;;;16.90;50.13;96606.19;10340613;28;96830;-68
2022/06/10 21:44:53;;;;;;;4.15;1.70;;;;;;;16.56;50.83;96599.50;10341609;28;96878;-67
2022/06/10 21:49:58;;;;;;;3.88;1.30;;;;;;;16.34;50.70;96605.59;10347686;28;102040;-66
2022/06/10 21:55:02;;;;;;;3.63;1.48;;;;;;;16.05;50.89;96610.53;10345658;28;96840;-66
2022/06/10 22:00:19;;;;;;;11.77;7.63;;;;;;;15.91;52.03;96613.88;10334722;28;96955;-65
2022/06/10 22:05:27;;;;;;;3.53;1.20;;;;;;;15.83;52.41;96609.50;10339030;28;96792;-66
2022/06/10 22:10:30;;;;;;;3.45;2.63;;;;;;;15.81;52.04;96615.94;10351664;28;97788;-67
2022/06/10 22:15:33;;;;;;;4.30;1.52;;;;;;;15.69;52.56;96620.75;10338718;28;97581;-67
2022/06/10 22:20:41;;;;;;;3.53;1.45;;;;;;;15.60;52.63;96613.84;10330935;28;96967;-69
2022/06/10 22:25:48;;;;;;;2.00;1.10;;;;;;;15.47;52.51;96615.19;10336611;28;96759;-67
2022/06/10 22:30:55;;;;;;;3.38;1.48;;;;;;;15.22;53.29;96621.50;10340597;28;96950;-67
2022/06/10 22:36:07;;;;;;;3.78;1.40;;;;;;;15.05;53.70;96628.59;10333901;28;96787;-67
2022/06/10 22:41:17;;;;;;;2.88;1.30;;;;;;;14.86;54.57;96624.50;10339424;28;96942;-67
2022/06/10 22:46:25;;;;;;;3.17;1.55;;;;;;;14.62;55.60;96620.88;10338044;28;97081;-68
2022/06/10 22:51:34;;;;;;;4.03;1.70;;;;;;;14.53;56.13;96622.69;10338000;28;97167;-68
2022/06/10 22:56:37;;;;;;;2.55;1.25;;;;;;;14.53;56.06;96632.38;10332689;28;96916;-67
2022/06/10 23:01:41;;;;;;;2.97;1.48;;;;;;;14.41;55.53;96633.69;10339116;28;97018;-67
2022/06/10 23:06:45;;;;;;;7.43;1.60;;;;;;;14.30;56.19;96632.16;10337223;28;96793;-67
2022/06/10 23:12:01;;;;;;;2.13;1.20;;;;;;;14.24;57.27;96640.66;10331264;28;96992;-68
2022/06/10 23:17:06;;;;;;;2.83;1.27;;;;;;;14.18;57.14;96640.31;10339865;28;96807;-67
2022/06/10 23:22:15;;;;;;;3.75;1.40;;;;;;;14.13;57.79;96641.78;10336801;28;96787;-67
2022/06/10 23:27:22;;;;;;;2.30;1.45;;;;;;;13.92;57.82;96645.66;10326000;28;97052;-67
2022/06/10 23:32:29;;;;;;;2.95;1.20;;;;;;;13.98;58.14;96641.56;10335867;28;96843;-67
2022/06/10 23:37:36;;;;;;;4.03;1.50;;;;;;;13.81;58.63;96643.31;10337297;28;96941;-67
2022/06/10 23:42:39;;;;;;;3.13;1.27;;;;;;;13.60;59.59;96641.09;10335611;28;96971;-69
2022/06/10 23:53:08;;;;;;;2.17;1.40;;;;;;;13.39;60.55;96644.09;10330920;28;96792;-67
2022/06/10 23:58:13;;;;;;;2.75;1.27;;;;;;;13.33;59.82;96644.72;10336226;28;98133;-67
